createdAt,value
2019-03-15T00:01:18.903Z,5.85
2019-03-15T00:03:48.667Z,5.89
2019-03-15T00:06:18.537Z,5.87
2019-03-15T00:08:48.298Z,5.91
2019-03-15T00:11:18.026Z,5.86
2019-03-15T00:13:47.918Z,5.92
2019-03-15T00:16:17.649Z,5.88
2019-03-15T00:18:47.422Z,5.93
2019-03-15T00:21:17.187Z,5.96
2019-03-15T00:23:47.084Z,5.99
2019-03-15T00:26:16.832Z,6.01
2019-03-15T00:28:46.592Z,6.03
2019-03-15T00:31:16.348Z,6.08
2019-03-15T00:33:46.081Z,6.08
2019-03-15T00:36:15.869Z,6.06
2019-03-15T00:38:45.592Z,5.99
2019-03-15T00:41:15.444Z,6.00
2019-03-15T00:43:45.201Z,6.01
2019-03-15T00:46:15.003Z,5.97
2019-03-15T00:48:44.768Z,5.93
2019-03-15T00:51:14.534Z,5.98
2019-03-15T00:53:44.304Z,6.02
2019-03-15T00:56:14.035Z,6.01
2019-03-15T00:58:43.825Z,5.98
2019-03-15T01:01:13.757Z,5.99
2019-03-15T01:03:43.549Z,5.96
2019-03-15T01:06:13.277Z,5.91
2019-03-15T01:08:43.026Z,5.96
2019-03-15T01:11:12.799Z,5.93
2019-03-15T01:13:42.515Z,5.93
2019-03-15T01:16:12.303Z,5.96
2019-03-15T01:18:42.038Z,5.97
2019-03-15T01:21:11.792Z,5.95
2019-03-15T01:23:41.538Z,5.97
2019-03-15T01:26:11.322Z,5.95
2019-03-15T01:28:41.081Z,5.90
2019-03-15T01:31:10.833Z,5.93
2019-03-15T01:33:40.581Z,5.90
2019-03-15T01:36:10.312Z,5.91
2019-03-15T01:38:40.093Z,5.92
2019-03-15T01:41:09.819Z,5.91
2019-03-15T01:43:39.578Z,5.93
2019-03-15T01:46:09.368Z,5.97
2019-03-15T01:48:39.146Z,5.89
2019-03-15T01:51:09.025Z,5.89
2019-03-15T01:53:38.784Z,5.90
2019-03-15T01:56:08.536Z,5.87
2019-03-15T01:58:38.254Z,5.86
2019-03-15T02:01:08.047Z,5.84
2019-03-15T02:03:37.783Z,5.83
2019-03-15T02:06:07.576Z,5.83
2019-03-15T02:08:37.309Z,5.80
2019-03-15T02:11:07.079Z,5.80
2019-03-15T02:13:36.827Z,5.80
2019-03-15T02:16:06.557Z,5.84
2019-03-15T02:18:36.353Z,5.86
2019-03-15T02:21:06.063Z,5.86
2019-03-15T02:23:35.811Z,5.80
2019-03-15T02:26:05.572Z,5.84
2019-03-15T02:28:35.365Z,5.82
2019-03-15T02:31:05.130Z,5.82
2019-03-15T02:33:34.893Z,5.81
2019-03-15T02:36:04.649Z,5.83
2019-03-15T02:38:34.382Z,5.84
2019-03-15T02:41:05.025Z,5.78
2019-03-15T02:43:35.115Z,5.72
2019-03-15T02:46:05.262Z,5.76
2019-03-15T02:48:35.095Z,5.74
2019-03-15T02:51:04.882Z,5.73
2019-03-15T02:53:34.979Z,5.74
2019-03-15T02:56:04.902Z,5.74
2019-03-15T02:58:34.675Z,5.74
2019-03-15T03:01:04.432Z,5.68
2019-03-15T03:03:34.239Z,5.64
2019-03-15T03:06:04.281Z,5.67
2019-03-15T03:08:34.071Z,5.69
2019-03-15T03:11:03.785Z,5.58
2019-03-15T03:13:33.574Z,5.57
2019-03-15T03:16:03.342Z,5.54
2019-03-15T03:18:34.533Z,5.55
2019-03-15T03:21:04.538Z,5.55
2019-03-15T03:23:34.356Z,5.55
2019-03-15T03:26:04.213Z,5.58
2019-03-15T03:28:33.932Z,5.53
2019-03-15T03:31:03.791Z,5.52
2019-03-15T03:33:33.520Z,5.54
2019-03-15T03:36:03.272Z,5.55
2019-03-15T03:38:33.035Z,5.60
2019-03-15T03:41:02.814Z,5.64
2019-03-15T03:43:32.567Z,5.57
2019-03-15T03:46:02.327Z,5.60
2019-03-15T03:48:32.078Z,5.58
2019-03-15T03:51:01.801Z,5.66
2019-03-15T03:53:31.580Z,5.66
2019-03-15T03:56:01.599Z,5.71
2019-03-15T03:58:31.351Z,5.67
2019-03-15T04:01:01.101Z,5.73
2019-03-15T04:03:30.984Z,5.74
2019-03-15T04:06:00.846Z,5.75
2019-03-15T04:08:30.614Z,5.75
2019-03-15T04:11:00.376Z,5.81
2019-03-15T04:13:30.255Z,5.85
2019-03-15T04:16:00.017Z,5.85
2019-03-15T04:18:29.765Z,5.89
2019-03-15T04:20:59.525Z,5.87
2019-03-15T04:23:29.257Z,5.89
2019-03-15T04:26:00.851Z,5.90
2019-03-15T04:28:30.583Z,5.95
2019-03-15T04:31:00.361Z,5.97
2019-03-15T04:33:30.105Z,5.94
2019-03-15T04:35:59.859Z,5.98
2019-03-15T04:38:29.728Z,5.93
2019-03-15T04:40:59.497Z,5.98
2019-03-15T04:43:29.248Z,6.01
2019-03-15T04:45:59.501Z,5.96
2019-03-15T04:48:29.371Z,5.96
2019-03-15T04:50:59.176Z,5.96
2019-03-15T04:53:28.938Z,5.99
2019-03-15T04:55:58.704Z,5.99
2019-03-15T04:58:28.479Z,6.02
2019-03-15T05:00:58.189Z,6.01
2019-03-15T05:03:27.971Z,6.05
2019-03-15T05:06:03.106Z,6.06
2019-03-15T05:08:29.220Z,6.06
2019-03-15T05:10:58.986Z,6.07
2019-03-15T05:13:28.763Z,6.10
2019-03-15T05:15:58.526Z,6.12
2019-03-15T05:18:28.282Z,6.13
2019-03-15T05:20:58.043Z,6.08
2019-03-15T05:23:27.784Z,6.08
2019-03-15T05:25:57.595Z,6.10
2019-03-15T05:28:27.328Z,6.06
2019-03-15T05:30:57.114Z,6.04
2019-03-15T05:33:26.832Z,6.03
2019-03-15T05:35:56.600Z,6.08
2019-03-15T05:38:26.347Z,6.12
2019-03-15T05:40:56.130Z,6.12
2019-03-15T05:43:25.883Z,6.13
2019-03-15T05:45:55.642Z,6.16
2019-03-15T05:48:25.404Z,6.13
2019-03-15T05:50:55.115Z,6.19
2019-03-15T05:53:24.927Z,6.15
2019-03-15T05:55:54.654Z,6.16
2019-03-15T05:58:24.405Z,6.15
2019-03-15T06:00:54.171Z,6.15
2019-03-15T06:03:23.906Z,6.15
2019-03-15T06:05:53.717Z,6.15
2019-03-15T06:08:23.592Z,6.13
2019-03-15T06:10:54.815Z,6.13
2019-03-15T06:13:24.779Z,6.10
2019-03-15T06:15:54.595Z,6.12
2019-03-15T06:18:24.334Z,6.13
2019-03-15T06:20:54.095Z,6.13
2019-03-15T06:23:23.856Z,6.08
2019-03-15T06:25:53.645Z,6.10
2019-03-15T06:28:23.428Z,6.13
2019-03-15T06:30:53.160Z,6.15
2019-03-15T06:33:22.923Z,6.15
2019-03-15T06:35:52.693Z,6.24
2019-03-15T06:38:22.429Z,6.22
2019-03-15T06:40:52.212Z,6.24
2019-03-15T06:43:21.939Z,6.23
2019-03-15T06:45:51.736Z,6.24
2019-03-15T06:48:21.568Z,6.27
2019-03-15T06:50:51.358Z,6.28
2019-03-15T06:53:22.211Z,6.36
2019-03-15T06:55:52.060Z,6.36
2019-03-15T06:58:21.789Z,6.27
2019-03-15T07:00:54.512Z,6.33
2019-03-15T07:03:24.201Z,6.35
2019-03-15T07:05:53.993Z,6.29
2019-03-15T07:08:23.724Z,6.22
2019-03-15T07:10:53.519Z,6.25
2019-03-15T07:13:23.238Z,6.33
2019-03-15T07:15:52.997Z,6.32
2019-03-15T07:18:22.766Z,6.48
2019-03-15T07:20:52.557Z,6.51
2019-03-15T07:23:22.318Z,6.59
2019-03-15T07:25:52.105Z,6.56
2019-03-15T07:28:21.849Z,6.66
2019-03-15T07:30:51.580Z,6.67
2019-03-15T07:33:23.091Z,6.64
2019-03-15T07:35:54.456Z,6.66
2019-03-15T07:38:24.251Z,6.59
2019-03-15T07:40:54.012Z,6.53
2019-03-15T07:43:23.808Z,6.61
2019-03-15T07:45:53.575Z,6.69
2019-03-15T07:48:26.794Z,6.66
2019-03-15T07:50:55.203Z,6.70
2019-03-15T07:53:24.972Z,6.77
2019-03-15T07:55:54.721Z,6.73
2019-03-15T07:58:24.506Z,6.78
2019-03-15T08:00:54.267Z,6.72
2019-03-15T08:03:24.015Z,6.66
2019-03-15T08:05:53.772Z,6.71
2019-03-15T08:08:23.587Z,6.68
2019-03-15T08:10:54.991Z,6.70
2019-03-15T08:13:24.971Z,6.64
2019-03-15T08:15:54.744Z,6.65
2019-03-15T08:18:24.474Z,6.68
2019-03-15T08:20:54.225Z,6.68
2019-03-15T08:23:23.996Z,6.73
2019-03-15T08:25:53.774Z,6.77
2019-03-15T08:28:23.542Z,6.80
2019-03-15T08:30:53.293Z,6.85
2019-03-15T08:33:23.068Z,6.81
2019-03-15T08:35:52.827Z,6.84
2019-03-15T08:38:22.605Z,6.82
2019-03-15T08:40:52.331Z,6.80
2019-03-15T08:43:22.136Z,6.79
2019-03-15T08:45:51.861Z,6.90
2019-03-15T08:48:21.652Z,7.07
2019-03-15T08:50:51.368Z,7.06
2019-03-15T08:53:21.126Z,7.01
2019-03-15T08:55:50.897Z,7.04
2019-03-15T08:58:22.320Z,7.07
2019-03-15T09:00:52.432Z,6.97
2019-03-15T09:03:28.088Z,7.07
2019-03-15T09:05:53.701Z,7.11
2019-03-15T09:08:23.493Z,7.13
2019-03-15T09:10:53.262Z,7.33
2019-03-15T09:13:23.056Z,7.41
2019-03-15T09:15:52.828Z,7.54
2019-03-15T09:18:22.568Z,7.77
2019-03-15T09:20:52.317Z,7.83
2019-03-15T09:23:22.051Z,7.88
2019-03-15T09:25:51.823Z,7.94
2019-03-15T09:28:21.551Z,8.01
2019-03-15T09:30:51.354Z,8.08
2019-03-15T09:33:21.389Z,8.07
2019-03-15T09:35:51.173Z,8.15
2019-03-15T09:38:21.287Z,8.08
2019-03-15T09:40:51.070Z,8.12
2019-03-15T09:43:20.791Z,8.15
2019-03-15T09:45:50.539Z,8.20
2019-03-15T09:48:20.300Z,8.28
2019-03-15T09:50:51.761Z,8.32
2019-03-15T09:53:21.714Z,8.48
2019-03-15T09:55:51.513Z,8.45
2019-03-15T09:58:21.279Z,8.60
2019-03-15T10:00:51.037Z,8.55
2019-03-15T10:03:22.342Z,8.47
2019-03-15T10:05:52.218Z,8.56
2019-03-15T10:08:23.736Z,8.68
2019-03-15T10:10:53.439Z,8.82
2019-03-15T10:13:23.225Z,8.79
2019-03-15T10:15:55.487Z,8.80
2019-03-15T10:18:24.453Z,8.71
2019-03-15T10:20:54.171Z,8.78
2019-03-15T10:23:23.920Z,8.89
2019-03-15T10:25:53.694Z,8.87
2019-03-15T10:28:25.135Z,8.78
2019-03-15T10:30:54.899Z,8.76
2019-03-15T10:33:24.693Z,8.76
2019-03-15T10:35:54.456Z,8.78
2019-03-15T10:38:24.224Z,8.98
2019-03-15T10:40:53.975Z,9.15
2019-03-15T10:43:23.706Z,9.23
2019-03-15T10:45:53.490Z,9.10
2019-03-15T10:48:25.458Z,8.97
2019-03-15T10:50:55.117Z,9.14
2019-03-15T10:53:24.838Z,9.13
2019-03-15T10:56:00.124Z,9.03
2019-03-15T10:58:26.064Z,9.03
2019-03-15T11:00:55.856Z,9.23
2019-03-15T11:03:25.575Z,9.25
2019-03-15T11:05:55.353Z,9.21
2019-03-15T11:08:25.091Z,9.37
2019-03-15T11:10:54.845Z,9.42
2019-03-15T11:13:24.595Z,9.48
2019-03-15T11:15:54.399Z,9.62
2019-03-15T11:18:24.172Z,9.60
2019-03-15T11:20:53.934Z,9.82
2019-03-15T11:23:23.679Z,9.82
2019-03-15T11:25:53.412Z,9.77
2019-03-15T11:28:23.204Z,9.67
2019-03-15T11:30:52.925Z,9.75
2019-03-15T11:33:22.678Z,9.92
2019-03-15T11:35:52.435Z,9.79
2019-03-15T11:38:22.154Z,9.77
2019-03-15T11:40:51.930Z,9.93
2019-03-15T11:43:21.651Z,9.79
2019-03-15T11:45:51.390Z,9.70
2019-03-15T11:48:21.173Z,9.62
2019-03-15T11:50:50.886Z,9.49
2019-03-15T11:53:20.635Z,9.42
2019-03-15T11:55:50.404Z,9.41
2019-03-15T11:58:20.281Z,9.47
2019-03-15T12:00:50.031Z,9.66
2019-03-15T12:03:19.809Z,9.75
2019-03-15T12:05:49.618Z,9.84
2019-03-15T12:08:19.477Z,9.94
2019-03-15T12:10:49.235Z,9.84
2019-03-15T12:13:19.035Z,9.83
2019-03-15T12:15:48.946Z,9.99
2019-03-15T12:18:18.726Z,9.94
2019-03-15T12:20:49.441Z,9.82
2019-03-15T12:23:19.435Z,9.65
2019-03-15T12:25:49.197Z,9.49
2019-03-15T12:28:18.978Z,9.16
2019-03-15T12:30:48.728Z,9.03
2019-03-15T12:33:18.502Z,9.16
2019-03-15T12:35:48.260Z,9.22
2019-03-15T12:38:18.035Z,9.15
2019-03-15T12:40:47.856Z,9.36
2019-03-15T12:43:19.108Z,9.56
2019-03-15T12:45:48.904Z,9.57
2019-03-15T12:48:18.696Z,9.72
2019-03-15T12:50:50.914Z,9.93
2019-03-15T12:53:20.658Z,10.07
2019-03-15T12:55:50.463Z,10.06
2019-03-15T12:58:20.234Z,10.02
2019-03-15T13:00:50.014Z,10.11
2019-03-15T13:03:20.074Z,10.21
2019-03-15T13:05:49.877Z,10.26
2019-03-15T13:08:19.645Z,10.34
2019-03-15T13:10:49.414Z,10.32
2019-03-15T13:13:19.177Z,10.26
2019-03-15T13:15:48.921Z,10.32
2019-03-15T13:18:18.765Z,10.40
2019-03-15T13:20:48.513Z,10.39
2019-03-15T13:23:19.447Z,10.27
2019-03-15T13:25:49.191Z,10.34
2019-03-15T13:28:18.978Z,10.25
2019-03-15T13:30:48.727Z,10.26
2019-03-15T13:33:20.785Z,10.26
2019-03-15T13:35:49.960Z,10.08
2019-03-15T13:38:19.807Z,10.14
2019-03-15T13:40:49.686Z,10.02
2019-03-15T13:43:19.462Z,10.12
2019-03-15T13:45:49.226Z,10.28
2019-03-15T13:48:18.962Z,10.28
2019-03-15T13:50:48.914Z,10.37
2019-03-15T13:53:18.847Z,10.35
2019-03-15T13:55:48.801Z,10.38
2019-03-15T13:58:18.567Z,10.36
2019-03-15T14:00:48.351Z,10.37
2019-03-15T14:03:18.125Z,10.58
2019-03-15T14:05:47.998Z,10.88
2019-03-15T14:08:17.762Z,11.07
2019-03-15T14:10:49.442Z,11.15
2019-03-15T14:13:19.110Z,11.21
2019-03-15T14:15:48.907Z,11.13
2019-03-15T14:18:21.287Z,11.04
2019-03-15T14:20:50.202Z,10.90
2019-03-15T14:23:20.606Z,10.78
2019-03-15T14:25:50.406Z,10.64
2019-03-15T14:28:20.182Z,10.67
2019-03-15T14:30:49.962Z,10.63
2019-03-15T14:33:19.830Z,10.61
2019-03-15T14:35:49.570Z,10.65
2019-03-15T14:38:19.567Z,10.62
2019-03-15T14:40:49.480Z,10.65
2019-03-15T14:43:19.320Z,10.70
2019-03-15T14:45:49.396Z,10.67
2019-03-15T14:48:19.123Z,10.58
2019-03-15T14:50:48.900Z,10.61
2019-03-15T14:53:18.685Z,10.65
2019-03-15T14:55:48.471Z,10.53
2019-03-15T14:58:18.271Z,10.46
2019-03-15T15:00:48.058Z,10.46
2019-03-15T15:03:18.139Z,10.46
2019-03-15T15:05:47.907Z,10.41
2019-03-15T15:08:17.645Z,10.39
2019-03-15T15:10:47.456Z,10.35
2019-03-15T15:13:17.216Z,10.30
2019-03-15T15:15:47.031Z,10.17
2019-03-15T15:18:18.351Z,10.16
2019-03-15T15:20:49.592Z,10.12
2019-03-15T15:23:19.336Z,10.12
2019-03-15T15:25:49.122Z,10.06
2019-03-15T15:28:19.040Z,10.04
2019-03-15T15:30:50.319Z,10.01
2019-03-15T15:33:20.090Z,10.00
2019-03-15T15:35:49.955Z,9.90
2019-03-15T15:38:19.910Z,9.91
2019-03-15T15:40:49.712Z,9.88
2019-03-15T15:43:19.567Z,9.88
2019-03-15T15:45:49.362Z,9.86
2019-03-15T15:48:19.130Z,9.81
2019-03-15T15:50:48.877Z,9.75
2019-03-15T15:53:18.672Z,9.75
2019-03-15T15:55:48.409Z,9.74
2019-03-15T15:58:18.560Z,9.68
2019-03-15T16:00:48.802Z,9.70
2019-03-15T16:03:33.568Z,9.70
2019-03-15T16:06:03.337Z,9.67
2019-03-15T16:08:43.668Z,9.64
2019-03-15T16:11:14.927Z,9.59
2019-03-15T16:13:44.728Z,9.55
2019-03-15T16:16:16.186Z,9.48
2019-03-15T16:18:46.075Z,9.43
2019-03-15T16:21:15.941Z,9.39
2019-03-15T16:23:45.722Z,9.38
2019-03-15T16:26:15.515Z,9.36
2019-03-15T16:28:45.238Z,9.34
2019-03-15T16:31:15.051Z,9.31
2019-03-15T16:33:46.386Z,9.31
2019-03-15T16:36:21.892Z,9.27
2019-03-15T16:38:52.416Z,9.21
2019-03-15T16:41:22.194Z,9.17
2019-03-15T16:43:51.967Z,9.15
2019-03-15T16:46:21.721Z,9.10
2019-03-15T16:48:51.520Z,9.02
2019-03-15T16:51:21.263Z,8.99
2019-03-15T16:53:51.053Z,8.85
2019-03-15T16:56:20.800Z,8.80
2019-03-15T16:58:50.564Z,8.73
2019-03-15T17:01:20.437Z,8.78
2019-03-15T17:03:50.223Z,8.72
2019-03-15T17:06:20.001Z,8.70
2019-03-15T17:08:49.766Z,8.65
2019-03-15T17:11:19.537Z,8.69
2019-03-15T17:13:49.273Z,8.66
2019-03-15T17:16:19.179Z,8.59
2019-03-15T17:18:48.981Z,8.55
2019-03-15T17:21:21.732Z,8.53
2019-03-15T17:23:51.477Z,8.49
2019-03-15T17:26:21.272Z,8.38
2019-03-15T17:28:58.583Z,8.35
2019-03-15T17:31:23.822Z,8.29
2019-03-15T17:33:55.074Z,8.33
2019-03-15T17:36:24.886Z,8.31
2019-03-15T17:38:54.624Z,8.22
2019-03-15T17:41:24.426Z,8.21
2019-03-15T17:43:54.161Z,8.20
2019-03-15T17:46:23.927Z,8.23
2019-03-15T17:48:53.725Z,8.20
2019-03-15T17:51:23.597Z,8.20
2019-03-15T17:53:53.483Z,8.20
2019-03-15T17:56:23.214Z,8.16
2019-03-15T17:58:52.987Z,8.16
2019-03-15T18:01:22.791Z,8.16
2019-03-15T18:03:52.617Z,8.15
2019-03-15T18:06:22.373Z,8.13
2019-03-15T18:08:52.104Z,8.15
2019-03-15T18:11:21.905Z,8.17
2019-03-15T18:13:52.056Z,8.19
2019-03-15T18:16:21.858Z,8.19
2019-03-15T18:18:54.854Z,8.23
2019-03-15T18:21:27.601Z,8.20
2019-03-15T18:23:57.335Z,8.23
2019-03-15T18:26:27.209Z,8.22
2019-03-15T18:28:57.092Z,8.20
2019-03-15T18:31:28.826Z,8.18
2019-03-15T18:33:58.818Z,8.20
2019-03-15T18:36:28.607Z,8.21
2019-03-15T18:39:00.371Z,8.23
2019-03-15T18:41:30.119Z,8.30
2019-03-15T18:43:59.962Z,8.34
2019-03-15T18:46:31.430Z,8.36
2019-03-15T18:49:02.818Z,8.34
2019-03-15T18:51:34.645Z,8.39
2019-03-15T18:54:17.475Z,8.40
2019-03-15T18:56:41.521Z,8.39
2019-03-15T18:59:12.997Z,8.37
2019-03-15T19:01:44.451Z,8.39
2019-03-15T19:07:56.449Z,8.41
2019-03-15T19:44:55.530Z,8.72
2019-03-15T19:54:32.023Z,8.87
2019-03-15T19:54:38.714Z,8.46
2019-03-15T19:56:49.543Z,8.39
2019-03-15T19:59:33.820Z,8.32
2019-03-15T20:05:53.596Z,8.33
2019-03-15T20:08:39.410Z,8.35
2019-03-15T20:11:10.976Z,8.37
2019-03-15T20:13:48.387Z,8.33
2019-03-15T20:16:25.148Z,8.37
2019-03-15T20:18:55.330Z,8.39
2019-03-15T20:21:33.085Z,8.39
2019-03-15T20:24:13.792Z,8.41
2019-03-15T20:26:52.138Z,8.42
2019-03-15T20:29:19.727Z,8.36
2019-03-15T20:31:55.847Z,8.31
2019-03-15T20:34:27.116Z,8.31
2019-03-15T20:36:57.017Z,8.27
2019-03-15T20:39:29.496Z,8.23
2019-03-15T20:42:13.329Z,8.25
2019-03-15T20:44:40.454Z,8.22
2019-03-15T20:47:20.257Z,8.19
2019-03-15T20:59:41.361Z,8.18
2019-03-15T21:08:26.738Z,8.05
2019-03-15T21:11:04.381Z,8.08
2019-03-15T21:13:57.516Z,8.05
2019-03-15T21:16:22.706Z,8.06
2019-03-15T21:18:54.514Z,8.09
2019-03-15T21:21:37.937Z,8.10
2019-03-15T21:24:50.826Z,8.12
2019-03-15T21:27:18.898Z,8.11
2019-03-15T21:29:53.920Z,8.12
2019-03-15T21:32:38.286Z,8.08
2019-03-15T21:35:18.193Z,8.05
2019-03-15T21:37:48.624Z,8.07
2019-03-15T21:40:22.796Z,8.09
2019-03-15T21:42:52.656Z,8.06
2019-03-15T21:45:28.838Z,8.04
2019-03-15T21:48:00.807Z,8.03
2019-03-15T21:53:15.774Z,8.01
2019-03-15T21:58:50.384Z,8.07
2019-03-15T22:04:16.136Z,7.95
2019-03-15T22:13:00.035Z,7.83
2019-03-15T22:15:57.576Z,7.86
2019-03-15T22:18:40.035Z,7.87
2019-03-15T22:21:24.483Z,7.93
2019-03-15T22:24:10.820Z,7.90
2019-03-15T22:26:50.253Z,7.88
2019-03-15T22:32:30.358Z,7.80
2019-03-15T22:35:17.414Z,7.77
2019-03-15T22:44:20.973Z,7.69
2019-03-15T22:46:53.374Z,7.67
2019-03-15T22:49:26.268Z,7.69
2019-03-15T22:52:09.803Z,7.72
2019-03-15T22:54:40.246Z,7.73
2019-03-15T23:00:35.167Z,7.78
2019-03-15T23:03:29.383Z,7.87
2019-03-15T23:06:08.736Z,7.87
2019-03-15T23:09:44.735Z,7.86
2019-03-15T23:11:37.295Z,7.85
2019-03-15T23:15:25.138Z,7.80
2019-03-15T23:21:31.731Z,7.77
2019-03-15T23:22:30.121Z,7.76
2019-03-15T23:25:01.475Z,7.71
2019-03-15T23:27:35.278Z,7.70
2019-03-15T23:30:07.803Z,7.71
2019-03-15T23:32:39.160Z,7.73
2019-03-15T23:35:08.910Z,7.72
2019-03-15T23:37:39.388Z,7.69
2019-03-15T23:40:11.378Z,7.70
2019-03-15T23:42:41.153Z,7.73
2019-03-15T23:45:11.416Z,7.70
2019-03-15T23:47:41.191Z,7.72
2019-03-15T23:50:14.714Z,7.68
2019-03-15T23:52:44.479Z,7.65
2019-03-15T23:55:14.248Z,7.57
2019-03-15T23:57:44.328Z,7.54
